Terminal Aerodrome Forecast
Issued by NWS Charleston, WV

Home | Current Version | Previous Version | Text Only | Print | Product List | Glossary On
Versions: 1 2 3 4 5 6 7 8 9 10 11 12 13 14 15 16 17 18 19 20 21 22 23
000
FTUS41 KRLX 261914 AAA
TAFEKN
TAF AMD
KEKN 261914Z 2619/2718 17011G20KT P6SM VCTS SCT035CB
     FM262100 20010G21KT 3SM TSRA OVC025CB
     FM262300 27009KT P6SM OVC003
     FM270300 30004KT 6SM SHRA OVC003
     FM270400 29004KT 6SM BR OVC003
     FM271100 00000KT 4SM BR BKN008
     FM271300 VRB03KT 6SM BR SCT008
     FM271600 26006KT P6SM FEW250=

USA.gov is the U.S. government's official web portal to all federal, state and local government web resources and services.